60R weather

Navasota Municipal Airport
Navasota, Texas, United States

Public forecast

Using degrees Fahrenheit for public forecast. Weather courtesy of forecast.io.

Closest aviation weather report (METAR) to Navasota Municipal Airport

Closest report is Brenham Municipal Airport, 16.4 nm (30.3 km) SW. Retrieved 2020/01/26 07:35 UTC (5 minutes ago):

K11R 260735Z AUTO 00000KT 7SM -RA BKN016 OVC025 15/15 A3000 RMK AO2 LTG DSNT N P0004 T01490145

Closest aviation forecast (TAF) to Navasota Municipal Airport

Closest forecast is Easterwood Field, 18.4 nm (34.0 km) NW. Retrieved 2020/01/26 06:22 UTC (1 hour ago):

TAF KCLL 260520Z 2606/2706 14005KT P6SM VCSH OVC028 FM260700 13005KT 6SM -SHRA BR SCT010 OVC020 FM260900 VRB04KT 4SM -SHRA BR OVC007 FM261200 VRB03KT 5SM BR OVC005 FM261600 25007KT P6SM SCT008 OVC015 FM261900 31008KT P6SM SCT020